Time;durP1;ratioP1;P1;durP2;ratioP2;P2;SDS_P1;SDS_P2;PMS_P1;PMS_P2;Temp;Humidity;BMP_temperature;BMP_pressure;BME280_temperature;BME280_humidity;BME280_pressure;Samples;Min_cycle;Max_cycle;Signal;HPM_P1;HPM_P2
2024/04/05 00:01:20;;;;;;;1.52;0.60;;;17.60;54.80;;;;;;6110124;23;20162;-81
2024/04/05 00:03:51;;;;;;;0.40;0.40;;;17.60;54.80;;;;;;6086637;23;20257;-80
2024/04/05 00:06:18;;;;;;;2.25;0.60;;;17.70;54.70;;;;;;6061974;23;20175;-80
2024/04/05 00:08:44;;;;;;;0.93;0.50;;;17.70;54.70;;;;;;6086883;23;20246;-81
2024/04/05 00:11:19;;;;;;;1.13;0.60;;;17.60;54.70;;;;;;6111574;23;20148;-81
2024/04/05 00:13:52;;;;;;;1.60;0.60;;;17.70;54.80;;;;;;6136870;23;20211;-80
2024/04/05 00:16:22;;;;;;;0.60;0.50;;;17.60;54.80;;;;;;6087321;23;20635;-81
2024/04/05 00:18:50;;;;;;;0.82;0.50;;;17.60;54.80;;;;;;6111475;23;20152;-81
2024/04/05 00:21:16;;;;;;;1.75;0.60;;;17.60;54.80;;;;;;6112690;23;20199;-81
2024/04/05 00:23:49;;;;;;;0.60;0.50;;;17.60;54.90;;;;;;6135788;23;20206;-81
2024/04/05 00:26:25;;;;;;;5.40;0.70;;;17.60;54.90;;;;;;6112925;23;20151;-81
2024/04/05 00:28:54;;;;;;;0.80;0.40;;;17.70;55.00;;;;;;6086610;23;20151;-82
2024/04/05 00:31:26;;;;;;;1.10;0.50;;;17.60;55.00;;;;;;6136309;23;20530;-81
2024/04/05 00:33:57;;;;;;;0.90;0.40;;;17.50;55.20;;;;;;6160581;23;20135;-81
2024/04/05 00:36:24;;;;;;;0.82;0.60;;;17.50;55.10;;;;;;6086681;23;20166;-81
2024/04/05 00:38:52;;;;;;;0.82;0.55;;;17.60;55.20;;;;;;6111235;23;20151;-81
2024/04/05 00:41:18;;;;;;;0.70;0.52;;;17.60;55.00;;;;;;6111869;23;20214;-80
2024/04/05 00:43:43;;;;;;;1.27;0.43;;;17.50;54.80;;;;;;6135310;23;20193;-81
2024/04/05 00:46:11;;;;;;;1.33;0.40;;;17.60;54.80;;;;;;6111110;23;20506;-82
2024/04/05 00:48:39;;;;;;;2.40;0.50;;;17.60;55.00;;;;;;6111507;23;20158;-81
2024/04/05 00:51:07;;;;;;;1.17;0.65;;;17.60;55.00;;;;;;6111494;23;20561;-82
2024/04/05 00:53:38;;;;;;;0.88;0.60;;;17.50;54.90;;;;;;6135981;23;20159;-81
2024/04/05 00:56:12;;;;;;;1.55;0.60;;;17.60;54.90;;;;;;6135363;23;20159;-81
2024/04/05 00:58:42;;;;;;;0.93;0.50;;;17.60;55.10;;;;;;6086725;23;20273;-81
2024/04/05 01:01:08;;;;;;;0.68;0.40;;;17.50;54.90;;;;;;6135200;23;20152;-81
2024/04/05 01:03:38;;;;;;;0.70;0.55;;;17.60;54.80;;;;;;6111460;23;20182;-81
2024/04/05 01:06:05;;;;;;;0.70;0.52;;;17.50;55.00;;;;;;6136351;23;20222;-82
2024/04/05 01:08:31;;;;;;;0.60;0.50;;;17.60;54.80;;;;;;6111160;23;20143;-81
2024/04/05 01:10:57;;;;;;;0.60;0.60;;;17.60;54.90;;;;;;6110833;23;20211;-81
2024/04/05 01:13:25;;;;;;;2.10;0.60;;;17.60;55.00;;;;;;6135513;23;20166;-82
2024/04/05 01:16:06;;;;;;;3.60;0.60;;;17.60;54.90;;;;;;6111505;23;20173;-82
2024/04/05 01:18:33;;;;;;;0.90;0.63;;;17.50;55.00;;;;;;6160299;23;20487;-82
2024/04/05 01:21:06;;;;;;;0.52;0.52;;;17.50;55.10;;;;;;6110859;23;20155;-81
2024/04/05 01:23:40;;;;;;;1.60;0.70;;;17.50;55.00;;;;;;6135077;23;20174;-81
2024/04/05 01:26:11;;;;;;;1.55;0.73;;;17.60;55.10;;;;;;6111154;23;20175;-81
2024/04/05 01:28:37;;;;;;;0.85;0.60;;;17.50;55.10;;;;;;6086863;23;20202;-81
2024/04/05 01:31:04;;;;;;;0.93;0.50;;;17.50;55.20;;;;;;6085871;23;20155;-81
2024/04/05 01:33:38;;;;;;;0.70;0.43;;;17.50;55.00;;;;;;6075763;23;20153;-81
2024/04/05 01:36:06;;;;;;;0.40;0.40;;;17.50;55.10;;;;;;6051698;23;20157;-81
2024/04/05 01:38:35;;;;;;;0.70;0.50;;;17.50;55.10;;;;;;6075836;23;20242;-81
2024/04/05 01:41:08;;;;;;;0.95;0.50;;;17.50;55.20;;;;;;6051586;23;20156;-82
2024/04/05 01:43:34;;;;;;;1.30;0.52;;;17.50;55.20;;;;;;6051161;23;20207;-81
2024/04/05 01:46:06;;;;;;;1.25;0.55;;;17.50;55.10;;;;;;6051656;23;20203;-81
2024/04/05 01:48:32;;;;;;;0.50;0.50;;;17.50;55.30;;;;;;6051485;23;20157;-81
2024/04/05 01:50:59;;;;;;;1.52;0.73;;;17.50;55.20;;;;;;6075582;23;20156;-81
2024/04/05 01:53:29;;;;;;;1.55;0.70;;;17.50;55.40;;;;;;6028161;23;20168;-81
2024/04/05 01:56:05;;;;;;;2.63;0.60;;;17.50;55.40;;;;;;6003281;23;20157;-81
2024/04/05 01:58:33;;;;;;;0.55;0.50;;;17.40;55.30;;;;;;6023397;23;20164;-82
2024/04/05 02:01:07;;;;;;;0.40;0.40;;;17.40;56.10;;;;;;6022594;23;20180;-82
2024/04/05 02:03:36;;;;;;;1.30;0.77;;;17.40;55.30;;;;;;6033654;23;20181;-80
2024/04/05 02:06:12;;;;;;;1.17;0.68;;;17.40;55.10;;;;;;6110475;23;20144;-80
2024/04/05 02:08:39;;;;;;;0.50;0.50;;;17.40;55.10;;;;;;6110511;23;20147;-82
2024/04/05 02:11:05;;;;;;;1.10;0.65;;;17.40;55.30;;;;;;6134506;23;20136;-81
2024/04/05 02:13:31;;;;;;;1.90;0.75;;;17.40;55.40;;;;;;6110528;23;20154;-82
2024/04/05 02:16:02;;;;;;;0.50;0.50;;;17.40;55.40;;;;;;6110192;23;20639;-81
2024/04/05 02:18:28;;;;;;;1.00;0.50;;;17.40;55.40;;;;;;6085042;23;20238;-82
2024/04/05 02:20:55;;;;;;;0.50;0.50;;;17.40;55.50;;;;;;6109524;23;20144;-82
2024/04/05 02:23:21;;;;;;;0.88;0.60;;;17.40;55.30;;;;;;6110194;23;20221;-82
2024/04/05 02:25:48;;;;;;;1.35;0.63;;;17.40;55.30;;;;;;6134273;23;20132;-81
2024/04/05 02:28:16;;;;;;;0.52;0.40;;;17.50;55.50;;;;;;6134507;23;20136;-81
2024/04/05 02:30:42;;;;;;;1.25;0.70;;;17.40;55.50;;;;;;6110348;23;20143;-81
2024/04/05 02:33:14;;;;;;;1.33;0.80;;;17.40;55.40;;;;;;6110476;23;20266;-81
2024/04/05 02:35:57;;;;;;;1.55;0.52;;;17.40;55.50;;;;;;6135078;23;20480;-81
2024/04/05 02:38:28;;;;;;;0.75;0.60;;;17.40;55.40;;;;;;6085040;23;20170;-81
2024/04/05 02:40:54;;;;;;;1.73;0.90;;;17.40;55.40;;;;;;6159016;23;20139;-81
2024/04/05 02:43:23;;;;;;;0.90;0.60;;;17.40;55.50;;;;;;6109657;23;20257;-80
2024/04/05 02:45:53;;;;;;;1.92;0.85;;;17.40;55.50;;;;;;6109777;23;20190;-81
2024/04/05 02:48:21;;;;;;;1.63;0.60;;;17.40;55.70;;;;;;6109905;23;20163;-81
2024/04/05 02:50:48;;;;;;;0.90;0.57;;;17.40;55.50;;;;;;6160662;23;20132;-81
2024/04/05 02:53:19;;;;;;;1.08;0.70;;;17.40;55.70;;;;;;6134777;23;20146;-81
2024/04/05 02:55:49;;;;;;;2.30;0.60;;;17.40;55.60;;;;;;6108089;23;20159;-81
2024/04/05 02:58:24;;;;;;;0.90;0.63;;;17.30;55.60;;;;;;6084601;23;20195;-81
2024/04/05 03:00:55;;;;;;;0.65;0.50;;;17.30;55.60;;;;;;6134858;23;20165;-81
2024/04/05 03:03:27;;;;;;;0.70;0.57;;;17.30;55.60;;;;;;6134683;23;20633;-81
2024/04/05 03:05:55;;;;;;;0.63;0.52;;;17.30;55.60;;;;;;6159477;23;20138;-81
2024/04/05 03:08:22;;;;;;;0.85;0.50;;;17.40;55.50;;;;;;6110032;23;20179;-81
2024/04/05 03:10:49;;;;;;;1.02;0.50;;;17.40;55.50;;;;;;6110480;23;20158;-81
2024/04/05 03:13:16;;;;;;;0.50;0.50;;;17.40;55.70;;;;;;6110185;23;20163;-81
2024/04/05 03:15:49;;;;;;;1.63;0.90;;;17.40;55.60;;;;;;6110476;23;20163;-82
2024/04/05 03:18:18;;;;;;;0.88;0.60;;;17.40;55.60;;;;;;6134937;23;20594;-80
2024/04/05 03:20:44;;;;;;;1.38;0.60;;;17.30;55.70;;;;;;6159983;23;20159;-81
2024/04/05 03:23:12;;;;;;;0.77;0.50;;;17.30;55.40;;;;;;6110349;23;20179;-82
2024/04/05 03:25:39;;;;;;;0.77;0.60;;;17.30;55.70;;;;;;6110029;23;20151;-82
2024/04/05 03:28:06;;;;;;;0.70;0.52;;;17.30;55.60;;;;;;6134804;23;20142;-82
2024/04/05 03:30:33;;;;;;;1.20;0.70;;;17.40;55.80;;;;;;6134331;23;20148;-82
2024/04/05 03:33:00;;;;;;;1.10;0.70;;;17.40;55.40;;;;;;6134463;23;20132;-81
2024/04/05 03:35:26;;;;;;;1.00;0.60;;;17.40;55.50;;;;;;6134205;23;20166;-81
2024/04/05 03:38:02;;;;;;;0.80;0.52;;;17.40;55.70;;;;;;6134721;23;20128;-81
2024/04/05 03:40:28;;;;;;;1.58;0.75;;;17.30;55.60;;;;;;6159103;23;20599;-82
2024/04/05 03:42:55;;;;;;;0.47;0.47;;;17.30;55.70;;;;;;6110147;23;20203;-81
2024/04/05 03:45:21;;;;;;;0.90;0.60;;;17.30;55.80;;;;;;6085793;23;20201;-81
2024/04/05 03:47:49;;;;;;;1.65;0.60;;;17.40;55.70;;;;;;6112338;23;20638;-81
2024/04/05 03:50:15;;;;;;;1.15;0.75;;;17.40;55.60;;;;;;6112465;23;20151;-81
2024/04/05 03:52:42;;;;;;;1.10;0.50;;;17.30;55.70;;;;;;6136460;23;20147;-82
2024/04/05 03:55:16;;;;;;;0.95;0.70;;;17.30;55.70;;;;;;6112241;23;20151;-81
2024/04/05 03:57:47;;;;;;;1.13;0.50;;;17.30;55.70;;;;;;6112111;23;20231;-81
2024/04/05 04:00:15;;;;;;;0.95;0.55;;;17.30;55.80;;;;;;6112842;23;20151;-81
2024/04/05 04:02:42;;;;;;;1.02;0.60;;;17.30;55.60;;;;;;6160859;23;20132;-81
2024/04/05 04:05:18;;;;;;;0.70;0.70;;;17.30;55.60;;;;;;6111720;23;20179;-81
2024/04/05 04:07:46;;;;;;;1.25;0.77;;;17.30;55.80;;;;;;6136472;23;20151;-81
2024/04/05 04:10:12;;;;;;;0.80;0.60;;;17.30;55.80;;;;;;6111813;23;20154;-81
2024/04/05 04:12:41;;;;;;;0.93;0.55;;;17.30;55.70;;;;;;6111706;23;20238;-81
2024/04/05 04:15:33;;;;;;;0.57;0.57;;;17.30;55.70;;;;;;6135923;23;20234;-81
2024/04/05 04:18:00;;;;;;;1.67;0.85;;;17.30;55.70;;;;;;6136301;23;20136;-81
2024/04/05 04:20:32;;;;;;;1.00;0.70;;;17.30;55.70;;;;;;6111659;23;20147;-81
2024/04/05 04:23:07;;;;;;;2.63;0.70;;;17.30;55.80;;;;;;6111904;23;20212;-81
2024/04/05 04:25:37;;;;;;;0.60;0.60;;;17.40;55.60;;;;;;6023438;23;20149;-81
2024/04/05 04:28:03;;;;;;;0.70;0.60;;;17.30;55.70;;;;;;6024003;23;20252;-82
2024/04/05 04:30:45;;;;;;;1.08;0.60;;;17.30;55.80;;;;;;6048239;23;20593;-81
2024/04/05 04:33:13;;;;;;;0.70;0.60;;;17.30;55.80;;;;;;6024422;23;20160;-81
2024/04/05 04:35:45;;;;;;;1.33;0.63;;;17.30;55.90;;;;;;6048168;23;20180;-81
2024/04/05 04:38:12;;;;;;;1.17;0.80;;;17.30;56.00;;;;;;6024625;23;20160;-82
2024/04/05 04:40:37;;;;;;;1.73;0.80;;;17.30;56.00;;;;;;6051613;23;20153;-81
2024/04/05 04:43:05;;;;;;;0.80;0.70;;;17.20;56.00;;;;;;6051503;23;20152;-81
2024/04/05 04:45:32;;;;;;;1.40;0.70;;;17.30;55.80;;;;;;6049432;23;20225;-82
2024/04/05 04:47:58;;;;;;;1.77;0.70;;;17.20;55.80;;;;;;6025434;23;20700;-81
2024/04/05 04:50:24;;;;;;;0.70;0.60;;;17.30;55.90;;;;;;6048795;23;20530;-81
2024/04/05 04:52:51;;;;;;;1.58;0.77;;;17.30;55.70;;;;;;6024653;23;20152;-81
2024/04/05 04:55:20;;;;;;;1.05;0.60;;;17.30;55.80;;;;;;6048442;23;20196;-82
2024/04/05 04:58:02;;;;;;;2.13;0.80;;;17.30;55.70;;;;;;6134933;23;20151;-81
2024/04/05 05:00:28;;;;;;;1.65;0.82;;;17.30;55.70;;;;;;6136775;23;20147;-81
2024/04/05 05:02:54;;;;;;;0.73;0.60;;;17.20;55.80;;;;;;6113631;23;20186;-81
2024/04/05 05:05:23;;;;;;;0.60;0.60;;;17.30;55.80;;;;;;6137279;23;20136;-81
2024/04/05 05:07:51;;;;;;;0.57;0.57;;;17.30;55.80;;;;;;6137335;23;20143;-81
2024/04/05 05:10:17;;;;;;;1.08;0.63;;;17.20;55.90;;;;;;6136440;23;20170;-81
2024/04/05 05:12:43;;;;;;;0.98;0.70;;;17.30;56.00;;;;;;6112728;23;20572;-81
2024/04/05 05:15:09;;;;;;;1.00;0.65;;;17.30;55.90;;;;;;6136461;23;20136;-81
2024/04/05 05:17:35;;;;;;;1.27;0.82;;;17.30;56.00;;;;;;6135829;23;20155;-81
2024/04/05 05:20:01;;;;;;;1.20;0.77;;;17.20;55.90;;;;;;6112253;23;20152;-81
2024/04/05 05:22:27;;;;;;;0.65;0.50;;;17.20;55.90;;;;;;6112429;23;20154;-81
2024/04/05 05:24:55;;;;;;;0.68;0.50;;;17.20;55.80;;;;;;6136525;23;20495;-81
2024/04/05 05:27:22;;;;;;;0.98;0.68;;;17.30;56.00;;;;;;6137623;23;20132;-81
2024/04/05 05:29:48;;;;;;;1.08;0.75;;;17.20;55.80;;;;;;6112886;23;20207;-82
2024/04/05 05:32:17;;;;;;;1.02;0.80;;;17.30;55.70;;;;;;6137607;23;20139;-81
2024/04/05 05:34:49;;;;;;;0.65;0.60;;;17.30;55.90;;;;;;6137224;23;20236;-81
2024/04/05 05:37:18;;;;;;;0.95;0.60;;;17.30;55.90;;;;;;6160514;23;20206;-81
2024/04/05 05:39:47;;;;;;;0.95;0.60;;;17.20;56.00;;;;;;6110443;23;20178;-80
2024/04/05 05:42:13;;;;;;;1.05;0.88;;;17.20;55.90;;;;;;6159674;23;20135;-81
2024/04/05 05:44:39;;;;;;;0.63;0.63;;;17.30;56.00;;;;;;6159785;23;20194;-81
2024/04/05 05:47:11;;;;;;;0.80;0.60;;;17.30;55.90;;;;;;6110700;23;20155;-80
2024/04/05 05:49:37;;;;;;;0.95;0.70;;;17.20;55.90;;;;;;6159373;23;20135;-81
2024/04/05 05:52:08;;;;;;;0.65;0.65;;;17.20;55.90;;;;;;6110411;23;20151;-81
2024/04/05 05:54:35;;;;;;;0.60;0.60;;;17.30;56.00;;;;;;6111812;23;20174;-81
2024/04/05 05:57:02;;;;;;;1.27;0.70;;;17.30;56.00;;;;;;6110225;23;20155;-81
2024/04/05 05:59:30;;;;;;;1.10;0.60;;;17.30;56.00;;;;;;6109906;23;20155;-81
2024/04/05 06:01:57;;;;;;;0.60;0.60;;;17.20;56.70;;;;;;6112568;23;20155;-81
2024/04/05 06:04:25;;;;;;;0.70;0.70;;;17.30;56.00;;;;;;6117201;23;20191;-81
2024/04/05 06:06:52;;;;;;;1.15;0.77;;;17.20;56.50;;;;;;6115910;23;20226;-81
2024/04/05 06:09:18;;;;;;;1.90;0.68;;;17.30;55.70;;;;;;6116702;23;20150;-81
2024/04/05 06:11:47;;;;;;;2.40;0.80;;;17.30;55.70;;;;;;6143788;23;20159;-81
2024/04/05 06:14:14;;;;;;;0.75;0.70;;;17.30;55.80;;;;;;6142590;23;20136;-82
2024/04/05 06:16:40;;;;;;;1.00;0.65;;;17.30;55.40;;;;;;6168241;23;20139;-82
2024/04/05 06:19:06;;;;;;;1.17;0.77;;;17.40;55.00;;;;;;6144592;23;20147;-81
2024/04/05 06:21:32;;;;;;;0.73;0.70;;;17.40;55.30;;;;;;6168754;23;20202;-81
2024/04/05 06:23:59;;;;;;;1.10;0.77;;;17.50;55.00;;;;;;6142895;23;20170;-81
2024/04/05 06:26:26;;;;;;;0.70;0.70;;;17.50;55.10;;;;;;6141999;23;20207;-81
2024/04/05 06:28:59;;;;;;;0.70;0.68;;;17.40;54.80;;;;;;6119491;23;20148;-80
2024/04/05 06:31:24;;;;;;;1.42;0.80;;;17.50;55.00;;;;;;6093438;23;20603;-81
2024/04/05 06:33:51;;;;;;;0.75;0.60;;;17.50;54.80;;;;;;6118501;23;20171;-81
2024/04/05 06:36:18;;;;;;;0.80;0.77;;;17.50;54.50;;;;;;6143818;23;20139;-82
2024/04/05 06:38:47;;;;;;;0.95;0.70;;;17.50;54.80;;;;;;6118981;23;20230;-81
2024/04/05 06:41:13;;;;;;;0.60;0.60;;;17.60;54.90;;;;;;6166597;23;20136;-81
2024/04/05 06:43:39;;;;;;;0.88;0.80;;;17.50;54.60;;;;;;6117534;23;20175;-81
2024/04/05 06:46:07;;;;;;;0.88;0.60;;;17.50;54.80;;;;;;6120102;23;20195;-81
2024/04/05 06:48:35;;;;;;;0.70;0.70;;;17.50;54.60;;;;;;6119454;23;20159;-81
2024/04/05 06:51:08;;;;;;;0.57;0.57;;;17.50;54.70;;;;;;6118396;23;20159;-81
2024/04/05 06:53:38;;;;;;;0.50;0.50;;;17.50;54.80;;;;;;6167023;23;20139;-81
2024/04/05 06:56:08;;;;;;;0.70;0.70;;;17.50;54.60;;;;;;6087591;23;20599;-81
2024/04/05 06:58:38;;;;;;;0.80;0.60;;;17.50;55.00;;;;;;6087270;23;20175;-80
2024/04/05 07:01:05;;;;;;;0.85;0.70;;;17.50;55.10;;;;;;6109776;23;20156;-82
2024/04/05 07:03:33;;;;;;;0.98;0.75;;;17.50;55.00;;;;;;6087558;23;20184;-81
2024/04/05 07:06:03;;;;;;;0.88;0.60;;;17.50;54.70;;;;;;6087870;23;20156;-81
2024/04/05 07:08:30;;;;;;;0.88;0.70;;;17.60;54.40;;;;;;6087221;23;20152;-81
2024/04/05 07:10:56;;;;;;;0.60;0.60;;;17.50;54.70;;;;;;6084595;23;20156;-81
2024/04/05 07:13:25;;;;;;;0.65;0.65;;;17.50;54.60;;;;;;6086274;23;20218;-81
2024/04/05 07:15:56;;;;;;;0.95;0.60;;;17.50;54.70;;;;;;6111170;23;20493;-81
2024/04/05 07:18:24;;;;;;;0.95;0.70;;;17.50;54.80;;;;;;6064394;23;20160;-81
2024/04/05 07:20:55;;;;;;;0.75;0.50;;;17.50;55.00;;;;;;6117795;23;20230;-81
2024/04/05 07:23:24;;;;;;;0.50;0.47;;;17.50;54.90;;;;;;6092647;23;20184;-81
2024/04/05 07:25:51;;;;;;;0.65;0.65;;;17.50;54.50;;;;;;6093085;23;20205;-81
2024/04/05 07:28:18;;;;;;;1.55;0.73;;;17.50;54.40;;;;;;6122479;23;20186;-81
2024/04/05 07:30:43;;;;;;;0.60;0.60;;;17.50;54.80;;;;;;6120158;23;20201;-81
2024/04/05 07:33:10;;;;;;;0.80;0.65;;;17.50;54.70;;;;;;6122239;23;20160;-81
2024/04/05 07:35:38;;;;;;;0.82;0.60;;;17.50;54.80;;;;;;6147369;23;20196;-81
2024/04/05 07:38:04;;;;;;;0.88;0.73;;;17.50;55.00;;;;;;6170283;23;20143;-81
2024/04/05 07:40:34;;;;;;;0.70;0.55;;;17.50;54.60;;;;;;6121961;23;20651;-81
2024/04/05 07:43:00;;;;;;;0.57;0.57;;;17.50;54.70;;;;;;6147684;23;20124;-81
2024/04/05 07:45:28;;;;;;;0.80;0.60;;;17.50;54.70;;;;;;6122309;23;20250;-81
2024/04/05 07:47:57;;;;;;;1.63;0.60;;;17.60;54.60;;;;;;6121450;23;20147;-81
2024/04/05 07:50:27;;;;;;;1.08;0.50;;;17.50;54.60;;;;;;6146679;23;20146;-81
2024/04/05 07:52:53;;;;;;;1.08;0.60;;;17.50;54.80;;;;;;6148575;23;20147;-81
2024/04/05 07:55:20;;;;;;;0.55;0.55;;;17.50;54.80;;;;;;6123821;23;20187;-81
2024/04/05 07:57:48;;;;;;;1.30;0.50;;;17.50;54.60;;;;;;6124868;23;20163;-81
2024/04/05 08:00:14;;;;;;;1.02;0.80;;;17.50;55.00;;;;;;6149226;23;20148;-81
2024/04/05 08:02:48;;;;;;;0.75;0.60;;;17.50;54.80;;;;;;6174510;23;20143;-81
2024/04/05 08:05:14;;;;;;;0.50;0.45;;;17.50;54.80;;;;;;6149073;23;20163;-81
2024/04/05 08:07:40;;;;;;;0.82;0.60;;;17.50;54.80;;;;;;6123217;23;20147;-81
2024/04/05 08:10:09;;;;;;;0.52;0.52;;;17.50;54.80;;;;;;6120900;23;20143;-81
2024/04/05 08:12:36;;;;;;;0.70;0.40;;;17.50;55.20;;;;;;6146685;23;20151;-81
2024/04/05 08:15:03;;;;;;;0.60;0.60;;;17.40;54.80;;;;;;6121491;23;20182;-81
2024/04/05 08:17:29;;;;;;;0.50;0.50;;;17.40;55.20;;;;;;6121965;23;20162;-81
2024/04/05 08:19:55;;;;;;;1.73;0.60;;;17.50;55.20;;;;;;6145174;23;20136;-81
2024/04/05 08:22:21;;;;;;;1.83;0.57;;;17.40;54.90;;;;;;6122570;23;20154;-80
2024/04/05 08:24:47;;;;;;;0.90;0.70;;;17.50;54.90;;;;;;6122154;23;20187;-81
2024/04/05 08:27:13;;;;;;;0.80;0.60;;;17.50;55.00;;;;;;6145064;23;20161;-80
2024/04/05 08:29:40;;;;;;;0.68;0.60;;;17.50;54.90;;;;;;6144612;23;20130;-80
2024/04/05 08:32:06;;;;;;;1.75;0.60;;;17.50;54.40;;;;;;6121220;23;20147;-81
2024/04/05 08:34:35;;;;;;;0.65;0.52;;;17.50;54.70;;;;;;6115925;23;20151;-80
2024/04/05 08:37:02;;;;;;;0.85;0.60;;;17.50;54.90;;;;;;6162235;23;20171;-81
2024/04/05 08:39:28;;;;;;;0.63;0.60;;;17.50;54.60;;;;;;6114201;23;20148;-81
2024/04/05 08:42:05;;;;;;;1.48;0.82;;;17.50;54.90;;;;;;6114974;23;20215;-81
2024/04/05 08:44:30;;;;;;;0.85;0.65;;;17.50;54.60;;;;;;6115950;23;20194;-81
2024/04/05 08:46:57;;;;;;;0.80;0.55;;;17.50;54.80;;;;;;6138908;23;20155;-81
2024/04/05 08:49:26;;;;;;;0.68;0.50;;;17.60;54.80;;;;;;6138973;23;20182;-81
2024/04/05 08:51:57;;;;;;;1.00;0.63;;;17.60;55.00;;;;;;6139960;23;20134;-81
2024/04/05 08:54:23;;;;;;;0.47;0.40;;;17.50;54.80;;;;;;6138339;23;20234;-81
2024/04/05 08:56:50;;;;;;;0.88;0.55;;;17.50;54.50;;;;;;6163176;23;20166;-81
2024/04/05 08:59:20;;;;;;;0.70;0.50;;;17.60;54.70;;;;;;6118822;23;20194;-81
2024/04/05 09:01:54;;;;;;;0.50;0.50;;;17.60;54.60;;;;;;6090164;23;20163;-81
2024/04/05 09:04:21;;;;;;;1.55;0.60;;;17.60;54.90;;;;;;6086199;23;20186;-81
2024/04/05 09:06:47;;;;;;;1.13;0.60;;;17.60;54.50;;;;;;6086375;23;20164;-81
2024/04/05 09:09:25;;;;;;;0.82;0.60;;;17.60;54.90;;;;;;6111135;23;20147;-81
2024/04/05 09:12:07;;;;;;;0.98;0.70;;;17.60;54.30;;;;;;6087158;23;20622;-81
2024/04/05 09:14:36;;;;;;;0.50;0.50;;;17.60;55.10;;;;;;6090063;23;20218;-81
2024/04/05 09:17:14;;;;;;;0.70;0.60;;;17.60;54.40;;;;;;6088513;23;20152;-81
2024/04/05 09:19:40;;;;;;;0.65;0.50;;;17.60;54.40;;;;;;6087895;23;20152;-81
2024/04/05 09:22:25;;;;;;;0.60;0.60;;;17.70;54.40;;;;;;6087120;23;20167;-81
2024/04/05 09:25:03;;;;;;;0.77;0.60;;;17.60;54.40;;;;;;6111019;23;20223;-81
2024/04/05 09:27:28;;;;;;;0.90;0.50;;;17.60;54.50;;;;;;6111447;23;20152;-81
2024/04/05 09:30:03;;;;;;;1.08;0.60;;;17.60;54.70;;;;;;6086740;23;20478;-81
2024/04/05 09:32:36;;;;;;;0.70;0.70;;;17.60;54.60;;;;;;6107104;23;20511;-81
2024/04/05 09:35:04;;;;;;;0.40;0.40;;;17.60;54.50;;;;;;6118414;23;20151;-81
2024/04/05 09:37:32;;;;;;;0.43;0.43;;;17.60;54.60;;;;;;6095145;23;20159;-81
2024/04/05 09:39:58;;;;;;;0.40;0.40;;;17.60;54.30;;;;;;6117559;23;20166;-81
2024/04/05 09:42:24;;;;;;;0.52;0.50;;;17.60;54.30;;;;;;6118776;23;20174;-81
2024/04/05 09:44:55;;;;;;;0.93;0.50;;;17.60;54.40;;;;;;6142771;23;20615;-81
2024/04/05 09:47:24;;;;;;;2.40;0.70;;;17.60;54.40;;;;;;6119192;23;20140;-81
2024/04/05 09:49:52;;;;;;;1.40;0.70;;;17.60;54.80;;;;;;6121289;23;20135;-81
2024/04/05 09:52:20;;;;;;;0.70;0.60;;;17.60;54.80;;;;;;6118275;23;20147;-82
2024/04/05 09:54:53;;;;;;;0.68;0.50;;;17.50;54.80;;;;;;6118475;23;20183;-81
2024/04/05 09:57:19;;;;;;;0.65;0.50;;;17.60;54.60;;;;;;6120801;23;20248;-81
2024/04/05 09:59:48;;;;;;;0.40;0.40;;;17.60;54.80;;;;;;6168710;23;20496;-81
2024/04/05 10:02:17;;;;;;;0.52;0.45;;;17.60;54.70;;;;;;6121060;23;20147;-81
2024/04/05 10:04:44;;;;;;;0.65;0.50;;;17.70;54.70;;;;;;6120606;23;20238;-81
2024/04/05 10:07:11;;;;;;;1.33;0.55;;;17.70;54.60;;;;;;6143991;23;20142;-81
2024/04/05 10:09:39;;;;;;;1.02;0.50;;;17.60;54.80;;;;;;6120799;23;20155;-81
2024/04/05 10:12:12;;;;;;;1.42;0.50;;;17.60;54.50;;;;;;6118071;23;20604;-81
2024/04/05 10:14:38;;;;;;;1.27;0.50;;;17.60;55.00;;;;;;6142738;23;20145;-81
2024/04/05 10:17:12;;;;;;;0.45;0.45;;;17.60;54.90;;;;;;6119206;23;20147;-81
2024/04/05 10:19:39;;;;;;;0.85;0.50;;;17.50;55.20;;;;;;6167672;23;20178;-81
2024/04/05 10:22:09;;;;;;;0.65;0.50;;;17.50;55.10;;;;;;6119597;23;20524;-81
2024/04/05 10:24:37;;;;;;;0.73;0.52;;;17.50;55.20;;;;;;6120317;23;20179;-81
2024/04/05 10:27:05;;;;;;;0.50;0.50;;;17.50;55.30;;;;;;6143325;23;20138;-81
2024/04/05 10:29:31;;;;;;;0.60;0.50;;;17.50;55.10;;;;;;6119833;23;20139;-81
2024/04/05 10:32:01;;;;;;;0.65;0.65;;;17.60;55.00;;;;;;6145383;23;20131;-81
2024/04/05 10:34:28;;;;;;;0.50;0.50;;;17.60;55.00;;;;;;6144715;23;20140;-81
2024/04/05 10:36:56;;;;;;;1.80;0.57;;;17.60;54.50;;;;;;6145865;23;20147;-82
2024/04/05 10:39:25;;;;;;;0.55;0.55;;;17.60;54.70;;;;;;6120476;23;20155;-81
2024/04/05 10:41:53;;;;;;;0.68;0.63;;;17.60;54.80;;;;;;6120204;23;20155;-81
2024/04/05 10:44:19;;;;;;;0.75;0.50;;;17.50;55.60;;;;;;6121833;23;20218;-81
2024/04/05 10:46:47;;;;;;;0.50;0.47;;;17.60;54.70;;;;;;6120923;23;20594;-81
2024/04/05 10:49:15;;;;;;;0.50;0.47;;;17.60;54.80;;;;;;6145295;23;20527;-82
2024/04/05 10:51:42;;;;;;;0.93;0.60;;;17.60;54.80;;;;;;6120520;23;20151;-81
2024/04/05 10:54:12;;;;;;;0.60;0.47;;;17.60;54.90;;;;;;6146522;23;20551;-81
2024/04/05 10:56:39;;;;;;;1.17;0.52;;;17.60;54.80;;;;;;6147324;23;20143;-81
2024/04/05 10:59:07;;;;;;;0.77;0.40;;;17.60;55.00;;;;;;6122425;23;20155;-81
2024/04/05 11:01:37;;;;;;;0.43;0.43;;;17.60;55.00;;;;;;6126085;23;20162;-81
2024/04/05 11:04:04;;;;;;;0.82;0.40;;;17.60;54.80;;;;;;6126220;23;20186;-82
2024/04/05 11:06:32;;;;;;;0.80;0.50;;;17.60;55.10;;;;;;6126346;23;20210;-81
2024/04/05 11:08:59;;;;;;;0.65;0.43;;;17.50;54.90;;;;;;6125464;23;20162;-81
2024/04/05 11:11:29;;;;;;;0.40;0.40;;;17.60;55.20;;;;;;6146048;23;20141;-81
2024/04/05 11:14:04;;;;;;;0.95;0.70;;;17.60;54.90;;;;;;6168797;23;20147;-81
2024/04/05 11:16:31;;;;;;;0.47;0.47;;;17.60;54.90;;;;;;6140307;23;20201;-80
2024/04/05 11:18:56;;;;;;;0.82;0.40;;;17.70;54.60;;;;;;6114454;23;20155;-80
2024/04/05 11:21:23;;;;;;;0.60;0.40;;;17.60;54.70;;;;;;6139171;23;20136;-80
2024/04/05 11:23:51;;;;;;;1.10;0.52;;;17.60;54.80;;;;;;6138844;23;20217;-80
2024/04/05 11:26:30;;;;;;;0.95;0.50;;;17.60;55.00;;;;;;6162795;23;20131;-80
2024/04/05 11:28:57;;;;;;;0.80;0.70;;;17.60;54.90;;;;;;6116916;23;20155;-80
2024/04/05 11:31:25;;;;;;;0.75;0.50;;;17.60;54.70;;;;;;6112259;23;20580;-80
2024/04/05 11:33:55;;;;;;;0.63;0.60;;;17.60;54.80;;;;;;6137796;23;20156;-80
2024/04/05 11:36:24;;;;;;;0.40;0.40;;;17.60;55.10;;;;;;6137509;23;20147;-79
2024/04/05 11:38:52;;;;;;;0.75;0.50;;;17.60;55.00;;;;;;6113490;23;20156;-79
2024/04/05 11:41:20;;;;;;;0.70;0.57;;;17.60;55.50;;;;;;6161050;23;20160;-79
2024/04/05 11:43:47;;;;;;;0.80;0.50;;;17.60;55.10;;;;;;6162830;23;20167;-79
2024/04/05 11:46:14;;;;;;;0.50;0.40;;;17.60;55.00;;;;;;6086843;23;20571;-80
2024/04/05 11:48:42;;;;;;;1.40;0.50;;;17.60;54.90;;;;;;6135657;23;20183;-79
2024/04/05 11:51:08;;;;;;;0.57;0.50;;;17.60;54.90;;;;;;6159545;23;20611;-80
2024/04/05 11:53:35;;;;;;;0.50;0.50;;;17.60;55.10;;;;;;6108547;23;20151;-80
2024/04/05 11:56:03;;;;;;;0.95;0.50;;;17.60;55.00;;;;;;6133954;23;20152;-81
2024/04/05 11:58:31;;;;;;;0.40;0.40;;;17.60;55.10;;;;;;6111036;23;20163;-80
2024/04/05 12:00:58;;;;;;;0.77;0.70;;;17.60;54.90;;;;;;6139411;23;20150;-80
2024/04/05 12:03:24;;;;;;;0.40;0.40;;;17.60;55.00;;;;;;6162157;23;20171;-80
2024/04/05 12:05:51;;;;;;;0.50;0.40;;;17.60;54.70;;;;;;6140612;23;20199;-80
2024/04/05 12:08:18;;;;;;;0.43;0.40;;;17.60;54.50;;;;;;6143155;23;20132;-80
2024/04/05 12:10:43;;;;;;;0.70;0.40;;;17.60;54.40;;;;;;6118191;23;20148;-80
2024/04/05 12:13:10;;;;;;;0.98;0.57;;;17.70;54.80;;;;;;6116938;23;20144;-80
2024/04/05 12:15:39;;;;;;;0.68;0.50;;;17.70;54.70;;;;;;6142799;23;20143;-80
2024/04/05 12:18:05;;;;;;;0.30;0.30;;;17.60;54.80;;;;;;6117725;23;20144;-80
2024/04/05 12:20:32;;;;;;;0.40;0.40;;;17.60;54.70;;;;;;6143099;23;20131;-80
2024/04/05 12:22:59;;;;;;;0.60;0.60;;;17.70;54.90;;;;;;6119017;23;20195;-80
2024/04/05 12:25:25;;;;;;;0.40;0.40;;;17.60;54.70;;;;;;6118847;23;20175;-81
2024/04/05 12:27:55;;;;;;;0.40;0.40;;;17.60;54.80;;;;;;6117506;23;20217;-80
2024/04/05 12:30:21;;;;;;;0.40;0.40;;;17.60;55.00;;;;;;6063798;23;20154;-80
2024/04/05 12:32:47;;;;;;;0.60;0.60;;;17.60;54.70;;;;;;6112581;23;20164;-80
2024/04/05 12:35:16;;;;;;;0.90;0.50;;;17.60;55.10;;;;;;6088961;23;20509;-80
2024/04/05 12:37:43;;;;;;;0.77;0.40;;;17.60;55.40;;;;;;6064510;23;20628;-80
2024/04/05 12:40:39;;;;;;;1.33;0.65;;;17.60;55.00;;;;;;6111218;23;20642;-80
2024/04/05 12:42:55;;;;;;;0.88;0.47;;;17.60;55.30;;;;;;6115350;23;20160;-80
2024/04/05 12:45:23;;;;;;;1.10;0.50;;;17.60;54.70;;;;;;6086763;23;20211;-80
2024/04/05 12:47:54;;;;;;;0.80;0.68;;;17.60;55.10;;;;;;6087112;23;20148;-81
2024/04/05 12:50:20;;;;;;;0.50;0.50;;;17.60;55.10;;;;;;6063507;23;20562;-81
2024/04/05 12:52:45;;;;;;;0.60;0.60;;;17.60;54.90;;;;;;6088098;23;20195;-80
2024/04/05 12:55:12;;;;;;;1.00;0.57;;;17.70;54.90;;;;;;6083870;23;20155;-81